Terminal Aerodrome Forecast
Issued by NWS

Home | Current Version | Previous Version | Text Only | Print | Product List | Glossary On
Versions: 1 2 3 4 5 6 7 8 9 10 11 12
631
FTUS44 KMAF 261121
TAFFST
TAF
KFST 261121Z 2612/2712 10008KT P6SM SCT030 OVC250
      TEMPO 2612/2615 BKN025
     FM261500 03011KT P6SM BKN025 OVC250
      TEMPO 2621/2701 3SM TSRA BR BKN030CB
      AMD NOT SKED=

USA.gov is the U.S. government's official web portal to all federal, state and local government web resources and services.